Time;durP1;ratioP1;P1;durP2;ratioP2;P2;SDS_P1;SDS_P2;PMS_P1;PMS_P2;Temp;Humidity;BMP_temperature;BMP_pressure;BME280_temperature;BME280_humidity;BME280_pressure;Samples;Min_cycle;Max_cycle;Signal;HPM_P1;HPM_P2
2024/01/06 00:07:32;;;;;;;36.13;18.40;;;;;;;-147.20;100.00;63046.97;32176632;27;20031;-67
2024/01/06 00:22:32;;;;;;;38.83;19.63;;;;;;;-147.20;100.00;63046.97;32195801;27;20031;-68
2024/01/06 00:37:33;;;;;;;35.03;19.77;;;;;;;-147.20;100.00;63046.97;32193392;27;20034;-64
2024/01/06 00:52:33;;;;;;;35.53;18.20;;;;;;;-147.20;100.00;63046.97;32190657;27;20054;-65
2024/01/06 01:07:34;;;;;;;36.72;19.02;;;;;;;-147.20;100.00;63046.97;32189430;27;35589;-68
2024/01/06 01:22:34;;;;;;;33.35;18.33;;;;;;;-147.20;100.00;63046.97;32186767;27;20023;-65
2024/01/06 01:37:34;;;;;;;42.40;19.17;;;;;;;-147.20;100.00;63046.97;32187550;27;20075;-64
2024/01/06 01:52:36;;;;;;;37.75;18.05;;;;;;;-147.20;100.00;63046.97;32185435;27;20039;-65
2024/01/06 02:07:36;;;;;;;34.97;18.20;;;;;;;-147.20;100.00;63046.97;32184987;27;20034;-64
2024/01/06 02:22:37;;;;;;;45.35;20.42;;;;;;;-147.20;100.00;63046.97;32184154;27;20039;-68
2024/01/06 02:37:37;;;;;;;36.72;18.13;;;;;;;-147.20;100.00;63046.97;32163220;27;20033;-68
2024/01/06 02:52:37;;;;;;;33.05;17.33;;;;;;;-147.20;100.00;63046.97;32178739;27;34685;-67
2024/01/06 03:07:38;;;;;;;36.05;17.50;;;;;;;-147.20;100.00;63046.97;32178122;27;36004;-68
2024/01/06 03:22:38;;;;;;;32.03;16.17;;;;;;;-147.20;100.00;63046.97;32176321;27;21480;-67
2024/01/06 03:37:38;;;;;;;36.05;17.75;;;;;;;-147.20;100.00;63046.97;32174828;27;35994;-64
2024/01/06 03:52:39;;;;;;;31.50;16.88;;;;;;;-147.20;100.00;63046.97;32192202;27;20046;-68
2024/01/06 04:07:39;;;;;;;32.47;17.15;;;;;;;-147.20;100.00;63046.97;32195747;27;34639;-65
2024/01/06 04:22:39;;;;;;;32.33;16.77;;;;;;;-147.20;100.00;63046.97;32195296;27;20027;-65
2024/01/06 04:37:39;;;;;;;33.83;15.80;;;;;;;-147.20;100.00;63046.97;32193220;27;34392;-65
2024/01/06 04:52:40;;;;;;;35.33;18.08;;;;;;;-147.20;100.00;63046.97;32190700;27;36000;-64
2024/01/06 05:07:40;;;;;;;35.88;16.88;;;;;;;-147.20;100.00;63046.97;32190103;27;20033;-67
2024/01/06 05:22:40;;;;;;;32.92;15.43;;;;;;;-147.20;100.00;63046.97;32186575;27;34419;-65
2024/01/06 05:37:41;;;;;;;28.38;14.30;;;;;;;-147.20;100.00;63046.97;32166611;27;30455;-65
2024/01/06 05:52:41;;;;;;;29.90;14.73;;;;;;;-147.20;100.00;63046.97;32183912;27;36009;-64
2024/01/06 06:07:42;;;;;;;32.80;15.88;;;;;;;-147.20;100.00;63046.97;32182684;27;20026;-67
2024/01/06 06:22:42;;;;;;;29.48;15.35;;;;;;;-147.20;100.00;63046.97;32180872;27;20069;-67
2024/01/06 06:37:42;;;;;;;26.75;14.73;;;;;;;-147.20;100.00;63046.97;32180560;27;35711;-66
2024/01/06 06:52:44;;;;;;;26.73;14.90;;;;;;;-147.20;100.00;63046.97;32177233;27;34906;-66
2024/01/06 07:07:46;;;;;;;26.80;14.18;;;;;;;-147.20;100.00;63046.97;32177647;27;20056;-65
2024/01/06 07:22:46;;;;;;;23.63;12.93;;;;;;;-147.20;100.00;63046.97;32175237;27;20065;-66
2024/01/06 07:37:47;;;;;;;24.85;12.88;;;;;;;-147.20;100.00;63046.97;32174466;27;34679;-66
2024/01/06 07:52:47;;;;;;;24.13;12.70;;;;;;;-147.20;100.00;63046.97;32171288;27;34719;-66
2024/01/06 08:07:47;;;;;;;23.25;13.18;;;;;;;-147.20;100.00;63046.97;32171132;27;20443;-66
2024/01/06 08:22:47;;;;;;;26.50;14.18;;;;;;;-147.20;100.00;63046.97;32170473;27;34802;-66
2024/01/06 08:37:48;;;;;;;25.60;12.43;;;;;;;-147.20;100.00;63046.97;32186632;27;20040;-65
2024/01/06 08:52:48;;;;;;;28.27;13.88;;;;;;;-147.20;100.00;63046.97;32188207;27;34592;-65
2024/01/06 09:07:50;;;;;;;25.40;14.00;;;;;;;-147.20;100.00;63046.97;32186741;27;35877;-66
2024/01/06 09:22:51;;;;;;;26.92;13.18;;;;;;;-147.20;100.00;63046.97;32187865;27;20076;-65
2024/01/06 09:37:51;;;;;;;26.50;14.20;;;;;;;-147.20;100.00;63046.97;32185151;27;20034;-66
2024/01/06 09:52:54;;;;;;;27.60;12.35;;;;;;;-147.20;100.00;63046.97;32181733;27;20121;-66
2024/01/06 10:07:54;;;;;;;27.67;13.77;;;;;;;-147.20;100.00;63046.97;32181255;27;20394;-65
2024/01/06 10:22:55;;;;;;;27.33;14.35;;;;;;;-147.20;100.00;63046.97;32182614;27;20037;-66
2024/01/06 10:37:55;;;;;;;33.70;15.85;;;;;;;-147.20;100.00;63046.97;32179109;27;20031;-67
2024/01/06 10:52:57;;;;;;;22.58;14.30;;;;;;;-147.20;100.00;63046.97;32175715;27;30478;-65
2024/01/06 11:08:00;;;;;;;24.80;14.45;;;;;;;-147.20;100.00;63046.97;32176010;27;20092;-65
2024/01/06 11:23:21;;;;;;;24.80;15.00;;;;;;;-147.20;100.00;63046.97;32175709;27;20041;-65
2024/01/06 11:38:22;;;;;;;25.92;15.35;;;;;;;-147.20;100.00;63046.97;32173702;27;20573;-66
2024/01/06 11:53:23;;;;;;;33.03;17.33;;;;;;;-147.20;100.00;63046.97;32171439;27;26508;-67
2024/01/06 12:08:23;;;;;;;32.45;16.85;;;;;;;-147.20;100.00;63046.97;32181817;27;20475;-67
2024/01/06 12:23:27;;;;;;;39.00;19.17;;;;;;;-147.20;100.00;63046.97;32175967;27;20070;-67
2024/01/06 12:38:29;;;;;;;38.80;20.77;;;;;;;-147.20;100.00;63046.97;32192587;27;20126;-64
2024/01/06 12:53:29;;;;;;;39.80;20.33;;;;;;;-147.20;100.00;63046.97;32189697;27;20150;-67
2024/01/06 13:08:30;;;;;;;40.22;20.40;;;;;;;-147.20;100.00;63046.97;32188770;27;33621;-66
2024/01/06 13:23:30;;;;;;;41.08;20.23;;;;;;;-147.20;100.00;63046.97;32188239;27;20471;-66
2024/01/06 13:38:30;;;;;;;42.20;20.42;;;;;;;-147.20;100.00;63046.97;32185401;27;34524;-65
2024/01/06 13:53:31;;;;;;;40.33;20.00;;;;;;;-147.20;100.00;63046.97;32183296;27;35707;-66
2024/01/06 14:08:31;;;;;;;34.75;18.65;;;;;;;-147.20;100.00;63046.97;32182239;27;20074;-65
2024/01/06 14:23:32;;;;;;;40.72;19.50;;;;;;;-147.20;100.00;63046.97;32180705;27;20535;-67
2024/01/06 14:38:32;;;;;;;35.20;18.00;;;;;;;-147.20;100.00;63046.97;32177282;27;20034;-67
2024/01/06 14:53:34;;;;;;;38.95;18.25;;;;;;;-147.20;100.00;63046.97;32177130;27;35511;-66
2024/01/06 15:08:34;;;;;;;31.80;17.45;;;;;;;-147.20;100.00;63046.97;32175227;27;20052;-65
2024/01/06 15:23:35;;;;;;;38.25;19.27;;;;;;;-147.20;100.00;63046.97;32174995;27;22852;-66
2024/01/06 15:38:35;;;;;;;40.53;18.67;;;;;;;-147.20;100.00;63046.97;32175323;27;34434;-65
2024/01/06 15:53:35;;;;;;;32.67;16.70;;;;;;;-147.20;100.00;63046.97;32195505;27;33718;-66
2024/01/06 16:08:36;;;;;;;35.40;17.60;;;;;;;-147.20;100.00;63046.97;32193413;27;34355;-66
2024/01/06 16:23:36;;;;;;;36.17;16.35;;;;;;;-147.20;100.00;63046.97;32193830;27;20170;-65
2024/01/06 16:38:36;;;;;;;33.75;17.98;;;;;;;-147.20;100.00;63046.97;32190957;27;34698;-66
2024/01/06 16:53:37;;;;;;;29.48;15.45;;;;;;;-147.20;100.00;63046.97;32191398;27;20050;-65
2024/01/06 17:08:38;;;;;;;36.53;15.80;;;;;;;-147.20;100.00;63046.97;32188110;27;33935;-68
2024/01/06 17:23:38;;;;;;;32.54;15.78;;;;;;;-147.20;100.00;63046.97;32187548;27;20031;-67
2024/01/06 17:38:38;;;;;;;32.72;15.20;;;;;;;-147.20;100.00;63046.97;32184880;27;34505;-67
2024/01/06 17:53:38;;;;;;;27.38;13.30;;;;;;;-147.20;100.00;63046.97;32183071;27;33734;-66
2024/01/06 18:08:39;;;;;;;25.50;12.77;;;;;;;-147.20;100.00;63046.97;32179234;27;34691;-64
2024/01/06 18:23:40;;;;;;;24.05;12.48;;;;;;;-147.20;100.00;63046.97;32180646;27;35907;-66
2024/01/06 18:38:40;;;;;;;22.55;10.98;;;;;;;-147.20;100.00;63046.97;32181223;27;34341;-65
2024/01/06 18:53:41;;;;;;;24.13;13.02;;;;;;;-147.20;100.00;63046.97;32176780;27;27752;-68
2024/01/06 19:08:42;;;;;;;17.38;9.80;;;;;;;-147.20;100.00;63046.97;32177892;27;20381;-65
2024/01/06 19:23:42;;;;;;;19.67;9.50;;;;;;;-147.20;100.00;63046.97;32156563;27;33715;-66
2024/01/06 19:38:43;;;;;;;17.17;9.32;;;;;;;-147.20;100.00;63046.97;32173650;27;20560;-64
2024/01/06 19:53:44;;;;;;;16.45;10.20;;;;;;;-147.20;100.00;63046.97;32171470;27;20050;-66
2024/01/06 20:08:44;;;;;;;16.17;8.48;;;;;;;-147.20;100.00;63046.97;32169884;27;20058;-64
2024/01/06 20:23:44;;;;;;;9.45;6.30;;;;;;;-147.20;100.00;63046.97;32170622;27;34849;-66
2024/01/06 20:38:47;;;;;;;15.25;9.27;;;;;;;-147.20;100.00;63046.97;32171850;27;33465;-65
2024/01/06 20:53:49;;;;;;;15.65;9.05;;;;;;;-147.20;100.00;63046.97;32191122;27;20047;-64
2024/01/06 21:08:49;;;;;;;14.73;8.20;;;;;;;-147.20;100.00;63046.97;32190345;27;20041;-64
2024/01/06 21:23:49;;;;;;;15.52;9.25;;;;;;;-147.20;100.00;63046.97;32187229;27;35638;-65
2024/01/06 21:38:49;;;;;;;14.63;7.95;;;;;;;-147.20;100.00;63046.97;32185630;27;20154;-64
2024/01/06 21:53:50;;;;;;;18.40;8.63;;;;;;;-147.20;100.00;63046.97;32183817;27;34650;-66
2024/01/06 22:08:50;;;;;;;16.60;7.43;;;;;;;-147.20;100.00;63046.97;32183780;27;35815;-65
2024/01/06 22:23:50;;;;;;;15.10;8.00;;;;;;;-147.20;100.00;63046.97;32181988;27;34911;-66
2024/01/06 22:38:50;;;;;;;15.70;7.65;;;;;;;-147.20;100.00;63046.97;32181551;27;20379;-65
2024/01/06 22:53:51;;;;;;;10.05;6.47;;;;;;;-147.20;100.00;63046.97;32178974;27;35990;-65
2024/01/06 23:08:52;;;;;;;11.43;5.47;;;;;;;-147.20;100.00;63046.97;32179884;27;20444;-66
2024/01/06 23:23:52;;;;;;;10.30;6.13;;;;;;;-147.20;100.00;63046.97;32179081;27;20030;-64
2024/01/06 23:38:52;;;;;;;9.85;4.75;;;;;;;-147.20;100.00;63046.97;32177591;27;20069;-66
2024/01/06 23:53:52;;;;;;;13.18;5.78;;;;;;;-147.20;100.00;63046.97;32176198;27;20130;-65
